Airfield :
LOGIN :

Register | Disclaimer

   EN    FR    IT 

 










Legend :    VFR   Marginal VFR   IFR   Intensive IFR   Very Intensive IFR
Visi :
Ceiling :
>= 8 km
>= 3000ft
5 to 8 km
1000 to 3000 ft
1500m to 5 km
500 to 1000 ft
800 to 1500m
200 to 500 ft
< 800m
< 200 ft
Symbols :   Thunderstorms  Fog  Heavy snow  Heavy precipitations  Wind > 20 kt
SIGMETs :     Misc.  Thunderstorms  Icing  Turbulence  Mountain Waves  Volcanic Ashes







- Airport Elevation : 526 ft
- IATA code : LTN
- Download approach charts


EGGW - London Luton

EXPIRED METARs :
  • 241420Z AUTO 23015KT 9999 SCT030 OVC040 21/14 Q1012
  • 241350Z AUTO 23016KT 9999 BKN030 OVC044 22/14 Q1012
  • 241320Z AUTO 23012KT 9999 SCT029 BKN044 22/14 Q1013
  • 241250Z AUTO 25014KT 220V280 9999 BKN029 OVC045 22/14 Q1013
  • 241220Z AUTO 26015KT 9999 BKN029 22/13 Q1013
  • 241150Z 24013KT 210V270 9999 BKN025 23/14 Q1013

TAF TAF EGGW
Valid from the 24 at 12:00 until the 25 at 12:00 UTC


241057Z 2412/2512 24013KT 9999 SCT025
PROB30
TEMPO 2412/2419 24016G26KT
BECMG 2505/2508 BKN010
TEMPO 2507/2511 6000 -RADZ BKN006
BECMG 2510/2512 SCT030
PROB30
TEMPO 2511/2512 26016G26KT 8000 -SHRA
ATIS : +44 1582 395 204
No reported NOTAMs for that airfield.



MET'MAP, your aeronautical weather chart ! - Copyright ORBIFLY December 2007 - Disclaimer

ORBIFLY MET'MAP TEAM :

Programming & Development : Alexandra Zaïnal
Concept & Development : Baudouin d'Aumeries
Co-Development & Prog : Marc-Olivier Méhu
Technical & hardware support : Manuel Goepfert

Contact : metmap@orbifly.com




SOURCES & CREDITS :

   NOAA